sensor_id;sensor_type;location;lat;lon;timestamp;temperature;humidity
14670;DHT22;7423;48.722;9.350;2023-07-30T00:02:22;22.10;99.90
14670;DHT22;7423;48.722;9.350;2023-07-30T00:04:49;22.10;99.90
14670;DHT22;7423;48.722;9.350;2023-07-30T00:07:17;22.10;99.90
14670;DHT22;7423;48.722;9.350;2023-07-30T00:09:43;22.10;99.90
14670;DHT22;7423;48.722;9.350;2023-07-30T00:12:10;22.20;99.90
14670;DHT22;7423;48.722;9.350;2023-07-30T00:14:37;22.20;99.90
14670;DHT22;7423;48.722;9.350;2023-07-30T00:17:04;22.10;99.90
14670;DHT22;7423;48.722;9.350;2023-07-30T00:19:31;22.10;99.90
14670;DHT22;7423;48.722;9.350;2023-07-30T00:21:58;22.20;99.90
14670;DHT22;7423;48.722;9.350;2023-07-30T00:24:25;22.10;99.90
14670;DHT22;7423;48.722;9.350;2023-07-30T00:26:52;22.10;99.90
14670;DHT22;7423;48.722;9.350;2023-07-30T00:29:19;22.10;99.90
14670;DHT22;7423;48.722;9.350;2023-07-30T00:31:46;22.10;99.90
14670;DHT22;7423;48.722;9.350;2023-07-30T00:34:13;22.10;99.90
14670;DHT22;7423;48.722;9.350;2023-07-30T00:36:40;22.10;99.90
14670;DHT22;7423;48.722;9.350;2023-07-30T00:39:07;22.10;99.90
14670;DHT22;7423;48.722;9.350;2023-07-30T00:41:34;22.20;99.90
14670;DHT22;7423;48.722;9.350;2023-07-30T00:44:01;22.30;99.90
14670;DHT22;7423;48.722;9.350;2023-07-30T00:46:28;22.20;99.90
14670;DHT22;7423;48.722;9.350;2023-07-30T00:48:55;22.20;99.90
14670;DHT22;7423;48.722;9.350;2023-07-30T00:51:22;22.20;99.90
14670;DHT22;7423;48.722;9.350;2023-07-30T00:53:50;22.10;99.90
14670;DHT22;7423;48.722;9.350;2023-07-30T00:56:17;22.00;99.90
14670;DHT22;7423;48.722;9.350;2023-07-30T00:58:46;21.90;99.90
14670;DHT22;7423;48.722;9.350;2023-07-30T01:01:15;22.00;99.90
14670;DHT22;7423;48.722;9.350;2023-07-30T01:03:42;21.90;99.90
14670;DHT22;7423;48.722;9.350;2023-07-30T01:06:09;22.00;99.90
14670;DHT22;7423;48.722;9.350;2023-07-30T01:08:36;22.00;99.90
14670;DHT22;7423;48.722;9.350;2023-07-30T01:11:04;21.90;99.90
14670;DHT22;7423;48.722;9.350;2023-07-30T01:13:33;22.00;99.90
14670;DHT22;7423;48.722;9.350;2023-07-30T01:16:00;22.00;99.90
14670;DHT22;7423;48.722;9.350;2023-07-30T01:18:27;22.00;99.90
14670;DHT22;7423;48.722;9.350;2023-07-30T01:20:58;22.00;99.90
14670;DHT22;7423;48.722;9.350;2023-07-30T01:23:26;22.00;99.90
14670;DHT22;7423;48.722;9.350;2023-07-30T01:26:04;22.00;99.90
14670;DHT22;7423;48.722;9.350;2023-07-30T01:28:37;22.00;99.90
14670;DHT22;7423;48.722;9.350;2023-07-30T01:31:08;22.00;99.90
14670;DHT22;7423;48.722;9.350;2023-07-30T01:33:37;22.00;99.90
14670;DHT22;7423;48.722;9.350;2023-07-30T01:36:06;22.00;99.90
14670;DHT22;7423;48.722;9.350;2023-07-30T01:38:33;22.10;99.90
14670;DHT22;7423;48.722;9.350;2023-07-30T01:41:01;22.00;99.90
14670;DHT22;7423;48.722;9.350;2023-07-30T01:43:28;22.00;99.90
14670;DHT22;7423;48.722;9.350;2023-07-30T01:45:54;22.00;99.90
14670;DHT22;7423;48.722;9.350;2023-07-30T01:48:21;22.00;99.90
14670;DHT22;7423;48.722;9.350;2023-07-30T01:50:48;21.90;99.90
14670;DHT22;7423;48.722;9.350;2023-07-30T01:53:15;22.00;99.90
14670;DHT22;7423;48.722;9.350;2023-07-30T01:55:42;22.00;99.90
14670;DHT22;7423;48.722;9.350;2023-07-30T01:58:10;22.00;99.90
14670;DHT22;7423;48.722;9.350;2023-07-30T02:00:37;22.00;99.90
14670;DHT22;7423;48.722;9.350;2023-07-30T02:03:04;22.00;99.90
14670;DHT22;7423;48.722;9.350;2023-07-30T02:05:31;22.00;99.90
14670;DHT22;7423;48.722;9.350;2023-07-30T02:07:58;22.00;99.90
14670;DHT22;7423;48.722;9.350;2023-07-30T02:10:25;22.00;99.90
14670;DHT22;7423;48.722;9.350;2023-07-30T02:12:52;22.10;99.90
14670;DHT22;7423;48.722;9.350;2023-07-30T02:15:19;22.10;99.90
14670;DHT22;7423;48.722;9.350;2023-07-30T02:17:46;22.10;99.90
14670;DHT22;7423;48.722;9.350;2023-07-30T02:20:13;22.00;99.90
14670;DHT22;7423;48.722;9.350;2023-07-30T02:22:40;21.90;99.90
14670;DHT22;7423;48.722;9.350;2023-07-30T02:25:06;21.90;99.90
14670;DHT22;7423;48.722;9.350;2023-07-30T02:27:33;21.90;99.90
14670;DHT22;7423;48.722;9.350;2023-07-30T02:30:00;21.90;99.90
14670;DHT22;7423;48.722;9.350;2023-07-30T02:32:28;21.90;99.90
14670;DHT22;7423;48.722;9.350;2023-07-30T02:34:55;21.90;99.90
14670;DHT22;7423;48.722;9.350;2023-07-30T02:37:22;21.80;99.90
14670;DHT22;7423;48.722;9.350;2023-07-30T02:39:49;21.90;99.90
14670;DHT22;7423;48.722;9.350;2023-07-30T02:42:16;21.90;99.90
14670;DHT22;7423;48.722;9.350;2023-07-30T02:44:42;22.00;99.90
14670;DHT22;7423;48.722;9.350;2023-07-30T02:47:09;22.00;99.90
14670;DHT22;7423;48.722;9.350;2023-07-30T02:49:36;21.90;99.90
14670;DHT22;7423;48.722;9.350;2023-07-30T02:52:03;21.90;99.90
14670;DHT22;7423;48.722;9.350;2023-07-30T02:54:30;21.90;99.90
14670;DHT22;7423;48.722;9.350;2023-07-30T02:56:57;21.80;99.90
14670;DHT22;7423;48.722;9.350;2023-07-30T02:59:24;21.80;99.90
14670;DHT22;7423;48.722;9.350;2023-07-30T03:01:51;21.80;99.90
14670;DHT22;7423;48.722;9.350;2023-07-30T03:04:18;21.70;99.90
14670;DHT22;7423;48.722;9.350;2023-07-30T03:06:45;21.70;99.90
14670;DHT22;7423;48.722;9.350;2023-07-30T03:09:11;21.70;99.90
14670;DHT22;7423;48.722;9.350;2023-07-30T03:11:38;21.80;99.90
14670;DHT22;7423;48.722;9.350;2023-07-30T03:14:06;21.80;99.90
14670;DHT22;7423;48.722;9.350;2023-07-30T03:16:33;21.80;99.90
14670;DHT22;7423;48.722;9.350;2023-07-30T03:19:00;21.90;99.90
14670;DHT22;7423;48.722;9.350;2023-07-30T03:21:27;21.80;99.90
14670;DHT22;7423;48.722;9.350;2023-07-30T03:23:53;21.80;99.90
14670;DHT22;7423;48.722;9.350;2023-07-30T03:26:20;21.80;99.90
14670;DHT22;7423;48.722;9.350;2023-07-30T03:28:47;21.80;99.90
14670;DHT22;7423;48.722;9.350;2023-07-30T03:31:14;21.80;99.90
14670;DHT22;7423;48.722;9.350;2023-07-30T03:33:41;21.80;99.90
14670;DHT22;7423;48.722;9.350;2023-07-30T03:36:13;21.80;99.90
14670;DHT22;7423;48.722;9.350;2023-07-30T03:38:41;21.90;99.90
14670;DHT22;7423;48.722;9.350;2023-07-30T03:41:09;21.80;99.90
14670;DHT22;7423;48.722;9.350;2023-07-30T03:43:37;21.70;99.90
14670;DHT22;7423;48.722;9.350;2023-07-30T03:46:04;21.90;99.90
14670;DHT22;7423;48.722;9.350;2023-07-30T03:48:31;21.70;99.90
14670;DHT22;7423;48.722;9.350;2023-07-30T03:50:58;21.70;99.90
14670;DHT22;7423;48.722;9.350;2023-07-30T03:53:25;21.70;99.90
14670;DHT22;7423;48.722;9.350;2023-07-30T03:55:52;21.70;99.90
14670;DHT22;7423;48.722;9.350;2023-07-30T03:58:20;21.70;99.90
14670;DHT22;7423;48.722;9.350;2023-07-30T04:00:47;21.60;99.90
14670;DHT22;7423;48.722;9.350;2023-07-30T04:03:14;21.60;99.90
14670;DHT22;7423;48.722;9.350;2023-07-30T04:05:41;21.60;99.90
14670;DHT22;7423;48.722;9.350;2023-07-30T04:08:07;21.50;99.90
14670;DHT22;7423;48.722;9.350;2023-07-30T04:10:34;21.50;99.90
14670;DHT22;7423;48.722;9.350;2023-07-30T04:13:01;21.50;99.90
14670;DHT22;7423;48.722;9.350;2023-07-30T04:15:28;21.60;99.90
14670;DHT22;7423;48.722;9.350;2023-07-30T04:17:55;21.60;99.90
14670;DHT22;7423;48.722;9.350;2023-07-30T04:20:22;21.60;99.90
14670;DHT22;7423;48.722;9.350;2023-07-30T04:22:49;21.60;99.90
14670;DHT22;7423;48.722;9.350;2023-07-30T04:25:16;21.60;99.90
14670;DHT22;7423;48.722;9.350;2023-07-30T04:27:42;21.70;99.90
14670;DHT22;7423;48.722;9.350;2023-07-30T04:30:10;21.70;99.90
14670;DHT22;7423;48.722;9.350;2023-07-30T04:32:37;21.60;99.90
14670;DHT22;7423;48.722;9.350;2023-07-30T04:35:04;21.60;99.90
14670;DHT22;7423;48.722;9.350;2023-07-30T04:37:31;21.60;99.90
14670;DHT22;7423;48.722;9.350;2023-07-30T04:39:58;21.60;99.90
14670;DHT22;7423;48.722;9.350;2023-07-30T04:42:25;21.60;99.90
14670;DHT22;7423;48.722;9.350;2023-07-30T04:44:52;21.50;99.90
14670;DHT22;7423;48.722;9.350;2023-07-30T04:47:19;21.60;99.90
14670;DHT22;7423;48.722;9.350;2023-07-30T04:49:45;21.80;99.90
14670;DHT22;7423;48.722;9.350;2023-07-30T04:52:12;21.70;99.90
14670;DHT22;7423;48.722;9.350;2023-07-30T04:54:39;21.70;99.90
14670;DHT22;7423;48.722;9.350;2023-07-30T04:57:06;21.70;99.90
14670;DHT22;7423;48.722;9.350;2023-07-30T04:59:33;21.60;99.90
14670;DHT22;7423;48.722;9.350;2023-07-30T05:02:01;21.60;99.90
14670;DHT22;7423;48.722;9.350;2023-07-30T05:04:28;21.60;99.90
14670;DHT22;7423;48.722;9.350;2023-07-30T05:06:54;21.60;99.90
14670;DHT22;7423;48.722;9.350;2023-07-30T05:09:21;21.60;99.90
14670;DHT22;7423;48.722;9.350;2023-07-30T05:11:48;21.60;99.90
14670;DHT22;7423;48.722;9.350;2023-07-30T05:14:15;21.50;99.90
14670;DHT22;7423;48.722;9.350;2023-07-30T05:16:42;21.60;99.90
14670;DHT22;7423;48.722;9.350;2023-07-30T05:19:09;21.60;99.90
14670;DHT22;7423;48.722;9.350;2023-07-30T05:21:36;21.50;99.90
14670;DHT22;7423;48.722;9.350;2023-07-30T05:24:04;21.60;99.90
14670;DHT22;7423;48.722;9.350;2023-07-30T05:26:31;21.60;99.90
14670;DHT22;7423;48.722;9.350;2023-07-30T05:28:57;21.50;99.90
14670;DHT22;7423;48.722;9.350;2023-07-30T05:31:24;21.60;99.90
14670;DHT22;7423;48.722;9.350;2023-07-30T05:33:51;21.60;99.90
14670;DHT22;7423;48.722;9.350;2023-07-30T05:36:18;21.70;99.90
14670;DHT22;7423;48.722;9.350;2023-07-30T05:38:45;21.70;99.90
14670;DHT22;7423;48.722;9.350;2023-07-30T05:41:12;21.80;99.90
14670;DHT22;7423;48.722;9.350;2023-07-30T05:43:39;21.80;99.90
14670;DHT22;7423;48.722;9.350;2023-07-30T05:46:05;21.70;99.90
14670;DHT22;7423;48.722;9.350;2023-07-30T05:48:32;21.70;99.90
14670;DHT22;7423;48.722;9.350;2023-07-30T05:50:59;21.70;99.90
14670;DHT22;7423;48.722;9.350;2023-07-30T05:53:26;21.90;99.90
14670;DHT22;7423;48.722;9.350;2023-07-30T05:55:53;21.90;99.90
14670;DHT22;7423;48.722;9.350;2023-07-30T05:58:20;21.90;99.90
14670;DHT22;7423;48.722;9.350;2023-07-30T06:00:47;21.80;99.90
14670;DHT22;7423;48.722;9.350;2023-07-30T06:03:14;21.80;99.90
14670;DHT22;7423;48.722;9.350;2023-07-30T06:05:41;21.80;99.90
14670;DHT22;7423;48.722;9.350;2023-07-30T06:08:08;21.70;99.90
14670;DHT22;7423;48.722;9.350;2023-07-30T06:10:38;21.70;99.90
14670;DHT22;7423;48.722;9.350;2023-07-30T06:13:07;21.60;99.90
14670;DHT22;7423;48.722;9.350;2023-07-30T06:15:34;21.70;99.90
14670;DHT22;7423;48.722;9.350;2023-07-30T06:18:01;21.60;99.90
14670;DHT22;7423;48.722;9.350;2023-07-30T06:20:30;21.60;99.90
14670;DHT22;7423;48.722;9.350;2023-07-30T06:22:57;21.60;99.90
14670;DHT22;7423;48.722;9.350;2023-07-30T06:25:24;21.60;99.90
14670;DHT22;7423;48.722;9.350;2023-07-30T06:27:51;21.60;99.90
14670;DHT22;7423;48.722;9.350;2023-07-30T06:30:18;21.60;99.90
14670;DHT22;7423;48.722;9.350;2023-07-30T06:32:44;21.70;99.90
14670;DHT22;7423;48.722;9.350;2023-07-30T06:35:11;21.70;99.90
14670;DHT22;7423;48.722;9.350;2023-07-30T06:37:38;21.70;99.90
14670;DHT22;7423;48.722;9.350;2023-07-30T06:40:06;21.70;99.90
14670;DHT22;7423;48.722;9.350;2023-07-30T06:42:33;21.70;99.90
14670;DHT22;7423;48.722;9.350;2023-07-30T06:45:00;21.70;99.90
14670;DHT22;7423;48.722;9.350;2023-07-30T06:47:27;21.80;99.90
14670;DHT22;7423;48.722;9.350;2023-07-30T06:49:54;21.90;99.90
14670;DHT22;7423;48.722;9.350;2023-07-30T06:52:21;21.80;99.90
14670;DHT22;7423;48.722;9.350;2023-07-30T06:54:48;21.80;99.90
14670;DHT22;7423;48.722;9.350;2023-07-30T06:57:15;21.80;99.90
14670;DHT22;7423;48.722;9.350;2023-07-30T06:59:42;21.90;99.90
14670;DHT22;7423;48.722;9.350;2023-07-30T07:02:09;21.90;99.90
14670;DHT22;7423;48.722;9.350;2023-07-30T07:04:35;21.90;99.90
14670;DHT22;7423;48.722;9.350;2023-07-30T07:07:02;21.90;99.90
14670;DHT22;7423;48.722;9.350;2023-07-30T07:09:30;21.90;99.90
14670;DHT22;7423;48.722;9.350;2023-07-30T07:11:58;22.00;99.90
14670;DHT22;7423;48.722;9.350;2023-07-30T07:14:25;21.90;99.90
14670;DHT22;7423;48.722;9.350;2023-07-30T07:16:53;21.90;99.90
14670;DHT22;7423;48.722;9.350;2023-07-30T07:19:22;22.00;99.90
14670;DHT22;7423;48.722;9.350;2023-07-30T07:21:49;22.00;99.90
14670;DHT22;7423;48.722;9.350;2023-07-30T07:24:16;22.10;99.90
14670;DHT22;7423;48.722;9.350;2023-07-30T07:26:43;22.00;99.90
14670;DHT22;7423;48.722;9.350;2023-07-30T07:29:11;22.10;99.90
14670;DHT22;7423;48.722;9.350;2023-07-30T07:31:38;22.10;99.90
14670;DHT22;7423;48.722;9.350;2023-07-30T07:34:05;22.10;99.90
14670;DHT22;7423;48.722;9.350;2023-07-30T07:36:32;22.20;99.90
14670;DHT22;7423;48.722;9.350;2023-07-30T07:38:59;22.20;99.90
14670;DHT22;7423;48.722;9.350;2023-07-30T07:41:26;22.10;99.90
14670;DHT22;7423;48.722;9.350;2023-07-30T07:43:53;22.00;99.90
14670;DHT22;7423;48.722;9.350;2023-07-30T07:46:20;22.10;99.90
14670;DHT22;7423;48.722;9.350;2023-07-30T07:48:47;22.10;99.90
14670;DHT22;7423;48.722;9.350;2023-07-30T07:51:14;22.10;99.90
14670;DHT22;7423;48.722;9.350;2023-07-30T07:53:41;22.10;99.90
14670;DHT22;7423;48.722;9.350;2023-07-30T07:56:08;22.00;99.90
14670;DHT22;7423;48.722;9.350;2023-07-30T07:58:35;22.00;99.90
14670;DHT22;7423;48.722;9.350;2023-07-30T08:01:02;22.00;99.90
14670;DHT22;7423;48.722;9.350;2023-07-30T08:03:29;21.90;99.90
14670;DHT22;7423;48.722;9.350;2023-07-30T08:05:56;21.90;99.90
14670;DHT22;7423;48.722;9.350;2023-07-30T08:08:26;21.80;99.90
14670;DHT22;7423;48.722;9.350;2023-07-30T08:10:53;21.80;99.90
14670;DHT22;7423;48.722;9.350;2023-07-30T08:13:21;21.80;99.90
14670;DHT22;7423;48.722;9.350;2023-07-30T08:15:47;21.70;99.90
14670;DHT22;7423;48.722;9.350;2023-07-30T08:18:14;21.90;99.90
14670;DHT22;7423;48.722;9.350;2023-07-30T08:20:41;21.90;99.90
14670;DHT22;7423;48.722;9.350;2023-07-30T08:23:08;21.90;99.90
14670;DHT22;7423;48.722;9.350;2023-07-30T08:25:35;21.80;99.90
14670;DHT22;7423;48.722;9.350;2023-07-30T08:28:02;21.90;99.90
14670;DHT22;7423;48.722;9.350;2023-07-30T08:30:29;21.90;99.90
14670;DHT22;7423;48.722;9.350;2023-07-30T08:32:56;21.90;99.90
14670;DHT22;7423;48.722;9.350;2023-07-30T08:35:23;21.90;99.90
14670;DHT22;7423;48.722;9.350;2023-07-30T08:37:49;22.00;99.90
14670;DHT22;7423;48.722;9.350;2023-07-30T08:40:16;22.00;99.90
14670;DHT22;7423;48.722;9.350;2023-07-30T08:42:44;22.10;99.90
14670;DHT22;7423;48.722;9.350;2023-07-30T08:45:11;22.10;99.90
14670;DHT22;7423;48.722;9.350;2023-07-30T08:47:40;22.10;99.90
14670;DHT22;7423;48.722;9.350;2023-07-30T08:50:08;22.10;99.90
14670;DHT22;7423;48.722;9.350;2023-07-30T08:52:36;22.20;99.90
14670;DHT22;7423;48.722;9.350;2023-07-30T08:55:04;22.20;99.90
14670;DHT22;7423;48.722;9.350;2023-07-30T08:57:32;22.20;99.90
14670;DHT22;7423;48.722;9.350;2023-07-30T09:00:06;22.20;99.90
14670;DHT22;7423;48.722;9.350;2023-07-30T09:02:47;22.20;99.90
14670;DHT22;7423;48.722;9.350;2023-07-30T09:05:15;22.20;99.90
14670;DHT22;7423;48.722;9.350;2023-07-30T09:07:42;22.30;99.90
14670;DHT22;7423;48.722;9.350;2023-07-30T09:10:09;22.30;99.90
14670;DHT22;7423;48.722;9.350;2023-07-30T09:12:36;22.30;99.90
14670;DHT22;7423;48.722;9.350;2023-07-30T09:15:04;22.30;99.90
14670;DHT22;7423;48.722;9.350;2023-07-30T09:17:34;22.30;99.90
14670;DHT22;7423;48.722;9.350;2023-07-30T09:20:05;22.20;99.90
14670;DHT22;7423;48.722;9.350;2023-07-30T09:22:34;22.30;99.90
14670;DHT22;7423;48.722;9.350;2023-07-30T09:25:07;22.30;99.90
14670;DHT22;7423;48.722;9.350;2023-07-30T09:27:34;22.30;99.90
14670;DHT22;7423;48.722;9.350;2023-07-30T09:30:02;22.30;99.90
14670;DHT22;7423;48.722;9.350;2023-07-30T09:32:34;22.20;99.90
14670;DHT22;7423;48.722;9.350;2023-07-30T09:35:09;22.20;99.90
14670;DHT22;7423;48.722;9.350;2023-07-30T09:37:38;22.20;99.90
14670;DHT22;7423;48.722;9.350;2023-07-30T09:40:14;22.30;99.90
14670;DHT22;7423;48.722;9.350;2023-07-30T09:42:46;22.30;99.90
14670;DHT22;7423;48.722;9.350;2023-07-30T09:45:19;22.30;99.90
14670;DHT22;7423;48.722;9.350;2023-07-30T09:47:49;22.30;99.90
14670;DHT22;7423;48.722;9.350;2023-07-30T09:50:16;22.30;99.90
14670;DHT22;7423;48.722;9.350;2023-07-30T09:52:45;22.30;99.90
14670;DHT22;7423;48.722;9.350;2023-07-30T09:55:12;22.30;99.90
14670;DHT22;7423;48.722;9.350;2023-07-30T09:57:39;22.30;99.90
14670;DHT22;7423;48.722;9.350;2023-07-30T10:00:07;22.40;99.90
14670;DHT22;7423;48.722;9.350;2023-07-30T10:02:38;22.30;99.90
14670;DHT22;7423;48.722;9.350;2023-07-30T10:05:16;22.20;99.90
14670;DHT22;7423;48.722;9.350;2023-07-30T10:07:49;22.20;99.90
14670;DHT22;7423;48.722;9.350;2023-07-30T10:10:21;22.10;99.90
14670;DHT22;7423;48.722;9.350;2023-07-30T10:12:49;22.20;99.90
14670;DHT22;7423;48.722;9.350;2023-07-30T10:15:20;22.20;99.90
14670;DHT22;7423;48.722;9.350;2023-07-30T10:17:56;22.20;99.90
14670;DHT22;7423;48.722;9.350;2023-07-30T10:20:27;22.30;99.90
14670;DHT22;7423;48.722;9.350;2023-07-30T10:22:58;22.20;99.90
14670;DHT22;7423;48.722;9.350;2023-07-30T10:25:43;22.20;99.90
14670;DHT22;7423;48.722;9.350;2023-07-30T10:31:05;22.30;99.90
14670;DHT22;7423;48.722;9.350;2023-07-30T10:33:53;22.40;99.90
14670;DHT22;7423;48.722;9.350;2023-07-30T10:36:44;22.40;99.90
14670;DHT22;7423;48.722;9.350;2023-07-30T10:39:18;22.40;99.90
14670;DHT22;7423;48.722;9.350;2023-07-30T10:41:49;22.40;99.90
14670;DHT22;7423;48.722;9.350;2023-07-30T10:44:18;22.50;99.90
14670;DHT22;7423;48.722;9.350;2023-07-30T10:46:48;22.60;99.90
14670;DHT22;7423;48.722;9.350;2023-07-30T10:49:15;22.60;99.90
14670;DHT22;7423;48.722;9.350;2023-07-30T10:51:42;22.70;99.90
14670;DHT22;7423;48.722;9.350;2023-07-30T10:54:09;22.70;99.90
14670;DHT22;7423;48.722;9.350;2023-07-30T10:56:37;22.80;99.90
14670;DHT22;7423;48.722;9.350;2023-07-30T10:59:10;22.80;99.90
14670;DHT22;7423;48.722;9.350;2023-07-30T11:01:39;22.90;99.90
14670;DHT22;7423;48.722;9.350;2023-07-30T11:06:37;22.90;99.90
14670;DHT22;7423;48.722;9.350;2023-07-30T11:09:05;22.90;99.90
14670;DHT22;7423;48.722;9.350;2023-07-30T11:11:32;23.10;99.90
14670;DHT22;7423;48.722;9.350;2023-07-30T11:14:00;22.90;99.90
14670;DHT22;7423;48.722;9.350;2023-07-30T11:16:27;22.90;99.90
14670;DHT22;7423;48.722;9.350;2023-07-30T11:18:54;23.00;99.90
14670;DHT22;7423;48.722;9.350;2023-07-30T11:21:21;23.60;99.90
14670;DHT22;7423;48.722;9.350;2023-07-30T11:23:50;23.10;99.90
14670;DHT22;7423;48.722;9.350;2023-07-30T11:26:19;23.10;99.90
14670;DHT22;7423;48.722;9.350;2023-07-30T11:28:46;23.20;99.90
14670;DHT22;7423;48.722;9.350;2023-07-30T11:31:17;23.30;99.90
14670;DHT22;7423;48.722;9.350;2023-07-30T11:33:49;23.30;99.90
14670;DHT22;7423;48.722;9.350;2023-07-30T11:36:19;23.30;99.90
14670;DHT22;7423;48.722;9.350;2023-07-30T11:38:48;23.40;99.90
14670;DHT22;7423;48.722;9.350;2023-07-30T11:41:15;23.40;99.90
14670;DHT22;7423;48.722;9.350;2023-07-30T11:43:44;23.40;99.90
14670;DHT22;7423;48.722;9.350;2023-07-30T11:46:20;23.50;99.90
14670;DHT22;7423;48.722;9.350;2023-07-30T11:48:51;23.50;99.90
14670;DHT22;7423;48.722;9.350;2023-07-30T11:51:27;23.70;99.90
14670;DHT22;7423;48.722;9.350;2023-07-30T11:53:56;23.80;99.90
14670;DHT22;7423;48.722;9.350;2023-07-30T11:56:29;23.90;99.90
14670;DHT22;7423;48.722;9.350;2023-07-30T11:59:04;23.90;99.90
14670;DHT22;7423;48.722;9.350;2023-07-30T12:01:33;24.10;99.90
14670;DHT22;7423;48.722;9.350;2023-07-30T12:04:04;24.10;99.90
14670;DHT22;7423;48.722;9.350;2023-07-30T12:06:46;24.20;99.90
14670;DHT22;7423;48.722;9.350;2023-07-30T12:09:19;24.30;99.90
14670;DHT22;7423;48.722;9.350;2023-07-30T12:11:52;24.40;99.90
14670;DHT22;7423;48.722;9.350;2023-07-30T12:14:28;24.00;99.90
14670;DHT22;7423;48.722;9.350;2023-07-30T12:16:58;23.70;99.90
14670;DHT22;7423;48.722;9.350;2023-07-30T12:19:27;23.70;99.90
14670;DHT22;7423;48.722;9.350;2023-07-30T12:21:54;23.70;99.90
14670;DHT22;7423;48.722;9.350;2023-07-30T12:24:21;23.60;99.90
14670;DHT22;7423;48.722;9.350;2023-07-30T12:26:49;24.00;99.90
14670;DHT22;7423;48.722;9.350;2023-07-30T12:29:19;24.30;99.90
14670;DHT22;7423;48.722;9.350;2023-07-30T12:31:46;24.60;99.90
14670;DHT22;7423;48.722;9.350;2023-07-30T12:34:15;24.70;99.90
14670;DHT22;7423;48.722;9.350;2023-07-30T12:36:41;24.90;99.90
14670;DHT22;7423;48.722;9.350;2023-07-30T12:39:08;24.80;99.90
14670;DHT22;7423;48.722;9.350;2023-07-30T12:41:35;24.80;99.90
14670;DHT22;7423;48.722;9.350;2023-07-30T12:44:03;24.80;99.90
14670;DHT22;7423;48.722;9.350;2023-07-30T12:46:31;24.80;99.90
14670;DHT22;7423;48.722;9.350;2023-07-30T12:48:59;24.80;99.90
14670;DHT22;7423;48.722;9.350;2023-07-30T12:51:31;24.80;99.90
14670;DHT22;7423;48.722;9.350;2023-07-30T12:53:58;24.90;99.90
14670;DHT22;7423;48.722;9.350;2023-07-30T12:56:26;24.80;99.90
14670;DHT22;7423;48.722;9.350;2023-07-30T12:58:53;24.80;99.90
14670;DHT22;7423;48.722;9.350;2023-07-30T13:01:20;24.70;99.90
14670;DHT22;7423;48.722;9.350;2023-07-30T13:03:47;24.60;99.90
14670;DHT22;7423;48.722;9.350;2023-07-30T13:06:16;24.50;99.90
14670;DHT22;7423;48.722;9.350;2023-07-30T13:08:43;24.40;99.90
14670;DHT22;7423;48.722;9.350;2023-07-30T13:11:10;24.30;99.90
14670;DHT22;7423;48.722;9.350;2023-07-30T13:13:37;24.30;99.90
14670;DHT22;7423;48.722;9.350;2023-07-30T13:16:04;24.40;99.90
14670;DHT22;7423;48.722;9.350;2023-07-30T13:18:31;24.30;99.90
14670;DHT22;7423;48.722;9.350;2023-07-30T13:20:57;24.20;99.90
14670;DHT22;7423;48.722;9.350;2023-07-30T13:23:25;24.00;99.90
14670;DHT22;7423;48.722;9.350;2023-07-30T13:25:52;24.10;99.90
14670;DHT22;7423;48.722;9.350;2023-07-30T13:28:19;24.10;99.90
14670;DHT22;7423;48.722;9.350;2023-07-30T13:30:46;24.20;99.90
14670;DHT22;7423;48.722;9.350;2023-07-30T13:33:13;24.20;99.90
14670;DHT22;7423;48.722;9.350;2023-07-30T13:35:40;24.20;99.90
14670;DHT22;7423;48.722;9.350;2023-07-30T13:38:07;24.30;99.90
14670;DHT22;7423;48.722;9.350;2023-07-30T13:40:33;24.40;99.90
14670;DHT22;7423;48.722;9.350;2023-07-30T13:43:00;24.40;99.90
14670;DHT22;7423;48.722;9.350;2023-07-30T13:45:27;24.40;99.90
14670;DHT22;7423;48.722;9.350;2023-07-30T13:47:54;24.40;99.90
14670;DHT22;7423;48.722;9.350;2023-07-30T13:50:21;24.30;99.90
14670;DHT22;7423;48.722;9.350;2023-07-30T13:52:48;24.30;99.90
14670;DHT22;7423;48.722;9.350;2023-07-30T13:55:15;24.30;99.90
14670;DHT22;7423;48.722;9.350;2023-07-30T13:57:43;24.40;99.90
14670;DHT22;7423;48.722;9.350;2023-07-30T14:00:10;24.20;99.90
14670;DHT22;7423;48.722;9.350;2023-07-30T14:02:38;24.10;99.90
14670;DHT22;7423;48.722;9.350;2023-07-30T14:05:05;24.30;99.90
14670;DHT22;7423;48.722;9.350;2023-07-30T14:07:32;24.20;99.90
14670;DHT22;7423;48.722;9.350;2023-07-30T14:09:59;24.30;99.90
14670;DHT22;7423;48.722;9.350;2023-07-30T14:12:26;24.20;99.90
14670;DHT22;7423;48.722;9.350;2023-07-30T14:14:53;24.20;99.90
14670;DHT22;7423;48.722;9.350;2023-07-30T14:17:20;24.20;99.90
14670;DHT22;7423;48.722;9.350;2023-07-30T14:19:46;24.20;99.90
14670;DHT22;7423;48.722;9.350;2023-07-30T14:22:13;24.20;99.90
14670;DHT22;7423;48.722;9.350;2023-07-30T14:24:40;24.20;99.90
14670;DHT22;7423;48.722;9.350;2023-07-30T14:27:09;24.20;99.90
14670;DHT22;7423;48.722;9.350;2023-07-30T14:29:36;24.10;99.90
14670;DHT22;7423;48.722;9.350;2023-07-30T14:32:04;24.10;99.90
14670;DHT22;7423;48.722;9.350;2023-07-30T14:34:31;24.10;99.90
14670;DHT22;7423;48.722;9.350;2023-07-30T14:36:58;24.10;99.90
14670;DHT22;7423;48.722;9.350;2023-07-30T14:39:24;24.00;99.90
14670;DHT22;7423;48.722;9.350;2023-07-30T14:41:51;24.10;99.90
14670;DHT22;7423;48.722;9.350;2023-07-30T14:44:18;24.10;99.90
14670;DHT22;7423;48.722;9.350;2023-07-30T14:46:45;23.80;99.90
14670;DHT22;7423;48.722;9.350;2023-07-30T14:49:12;23.90;99.90
14670;DHT22;7423;48.722;9.350;2023-07-30T14:51:39;24.00;99.90
14670;DHT22;7423;48.722;9.350;2023-07-30T14:54:06;23.90;99.90
14670;DHT22;7423;48.722;9.350;2023-07-30T14:56:33;23.90;99.90
14670;DHT22;7423;48.722;9.350;2023-07-30T14:59:00;24.10;99.90
14670;DHT22;7423;48.722;9.350;2023-07-30T15:01:29;24.00;99.90
14670;DHT22;7423;48.722;9.350;2023-07-30T15:03:56;24.00;99.90
14670;DHT22;7423;48.722;9.350;2023-07-30T15:06:24;24.00;99.90
14670;DHT22;7423;48.722;9.350;2023-07-30T15:08:57;24.10;99.90
14670;DHT22;7423;48.722;9.350;2023-07-30T15:11:24;24.00;99.90
14670;DHT22;7423;48.722;9.350;2023-07-30T15:13:51;24.10;99.90
14670;DHT22;7423;48.722;9.350;2023-07-30T15:16:18;24.00;99.90
14670;DHT22;7423;48.722;9.350;2023-07-30T15:18:46;24.00;99.90
14670;DHT22;7423;48.722;9.350;2023-07-30T15:21:13;24.00;99.90
14670;DHT22;7423;48.722;9.350;2023-07-30T15:23:42;24.00;99.90
14670;DHT22;7423;48.722;9.350;2023-07-30T15:26:09;23.90;99.90
14670;DHT22;7423;48.722;9.350;2023-07-30T15:28:36;24.00;99.90
14670;DHT22;7423;48.722;9.350;2023-07-30T15:31:03;24.00;99.90
14670;DHT22;7423;48.722;9.350;2023-07-30T15:33:30;24.00;99.90
14670;DHT22;7423;48.722;9.350;2023-07-30T15:36:01;24.10;99.90
14670;DHT22;7423;48.722;9.350;2023-07-30T15:38:28;23.90;99.90
14670;DHT22;7423;48.722;9.350;2023-07-30T15:40:55;23.90;99.90
14670;DHT22;7423;48.722;9.350;2023-07-30T15:43:22;23.90;99.90
14670;DHT22;7423;48.722;9.350;2023-07-30T15:45:49;24.00;99.90
14670;DHT22;7423;48.722;9.350;2023-07-30T15:48:16;24.00;99.90
14670;DHT22;7423;48.722;9.350;2023-07-30T15:50:42;24.10;99.90
14670;DHT22;7423;48.722;9.350;2023-07-30T15:53:09;24.10;99.90
14670;DHT22;7423;48.722;9.350;2023-07-30T15:55:36;24.10;99.90